Time;durP1;ratioP1;P1;durP2;ratioP2;P2;SDS_P1;SDS_P2;PMS_P1;PMS_P2;Temp;Humidity;BMP_temperature;BMP_pressure;BME280_temperature;BME280_humidity;BME280_pressure;Samples;Min_cycle;Max_cycle;Signal;HPM_P1;HPM_P2
2022/10/18 00:01:04;;;;;;;21.00;6.80;;;21.50;99.90;;;;;;4741324;29;20041;-75
2022/10/18 00:03:31;;;;;;;19.92;6.85;;;21.40;99.90;;;;;;4745616;30;20572;-75
2022/10/18 00:05:58;;;;;;;22.48;6.57;;;21.40;99.90;;;;;;4739376;30;20044;-76
2022/10/18 00:08:24;;;;;;;;;;;21.30;99.90;;;;;;4739634;30;20405;-76
2022/10/18 00:10:50;;;;;;;20.77;6.60;;;21.30;99.90;;;;;;4740669;30;20048;-77
2022/10/18 00:13:18;;;;;;;20.27;6.43;;;21.30;99.90;;;;;;4737537;29;20052;-76
2022/10/18 00:15:53;;;;;;;20.73;5.75;;;21.20;99.90;;;;;;4741219;30;20701;-75
2022/10/18 00:18:20;;;;;;;24.67;6.20;;;21.20;99.90;;;;;;4744293;30;20457;-76
2022/10/18 00:20:55;;;;;;;25.10;6.60;;;21.20;99.90;;;;;;4741988;30;20095;-76
2022/10/18 00:23:20;;;;;;;21.27;6.60;;;21.20;99.90;;;;;;4740015;30;20060;-76
2022/10/18 00:25:46;;;;;;;18.70;6.18;;;21.10;99.90;;;;;;4745188;30;20052;-75
2022/10/18 00:28:12;;;;;;;20.77;6.60;;;21.10;99.90;;;;;;4742242;30;20129;-76
2022/10/18 00:30:38;;;;;;;23.52;7.00;;;21.10;99.90;;;;;;4739171;30;20595;-76
2022/10/18 00:33:05;;;;;;;20.98;6.95;;;21.10;99.90;;;;;;4724583;30;20083;-75
2022/10/18 00:35:34;;;;;;;18.67;6.13;;;21.00;99.90;;;;;;4743129;30;20110;-78
2022/10/18 00:38:00;;;;;;;19.90;7.20;;;21.00;99.90;;;;;;4731036;30;20040;-76
2022/10/18 00:40:26;;;;;;;18.25;6.40;;;21.00;99.90;;;;;;4739700;29;20097;-75
2022/10/18 00:42:52;;;;;;;24.50;6.85;;;21.00;99.90;;;;;;4739184;30;20044;-76
2022/10/18 00:45:23;;;;;;;22.65;7.15;;;21.00;99.90;;;;;;4743052;30;20056;-76
2022/10/18 00:48:01;;;;;;;24.52;7.18;;;20.90;99.90;;;;;;4740660;30;20781;-76
2022/10/18 00:50:30;;;;;;;18.75;6.60;;;20.90;99.90;;;;;;4737286;30;20048;-76
2022/10/18 00:53:00;;;;;;;21.23;7.13;;;20.90;99.90;;;;;;4737213;30;20072;-75
2022/10/18 00:55:27;;;;;;;16.10;7.05;;;20.80;99.90;;;;;;4750752;30;20036;-75
2022/10/18 00:57:54;;;;;;;21.83;7.30;;;20.80;99.90;;;;;;4738190;30;20051;-76
2022/10/18 01:00:20;;;;;;;;;;;20.80;99.90;;;;;;4744684;30;20074;-75
2022/10/18 01:02:46;;;;;;;26.55;8.13;;;20.70;99.90;;;;;;4739745;30;19929;-75
2022/10/18 01:05:15;;;;;;;20.40;8.80;;;20.80;99.90;;;;;;4742704;30;20053;-76
2022/10/18 01:07:57;;;;;;;20.80;8.00;;;20.70;99.90;;;;;;4729287;30;20036;-75
2022/10/18 01:10:30;;;;;;;22.75;7.53;;;20.70;99.90;;;;;;4749081;30;20079;-75
2022/10/18 01:13:08;;;;;;;;;;;20.70;99.90;;;;;;4740468;30;20421;-75
2022/10/18 01:16:09;;;;;;;18.55;7.30;;;20.70;99.90;;;;;;4738098;30;20406;-75
2022/10/18 01:19:20;;;;;;;19.73;7.07;;;20.70;99.90;;;;;;4736531;30;20123;-76
2022/10/18 01:21:49;;;;;;;22.58;7.00;;;20.70;99.90;;;;;;4740750;30;20437;-75
2022/10/18 01:24:44;;;;;;;18.80;6.80;;;20.60;99.90;;;;;;4739594;29;20386;-75
2022/10/18 01:27:34;;;;;;;22.42;7.45;;;20.70;99.90;;;;;;4737824;30;20052;-75
2022/10/18 01:30:27;;;;;;;14.85;6.97;;;20.60;99.90;;;;;;4740835;30;20509;-76
2022/10/18 01:32:59;;;;;;;17.45;6.72;;;20.60;99.90;;;;;;4740733;30;20474;-75
2022/10/18 01:35:36;;;;;;;22.33;6.90;;;20.60;99.90;;;;;;4739580;30;20050;-76
2022/10/18 01:38:06;;;;;;;17.95;6.38;;;20.60;99.90;;;;;;4742242;30;20059;-76
2022/10/18 01:40:34;;;;;;;24.92;7.18;;;20.60;99.90;;;;;;4738605;30;20409;-75
2022/10/18 01:43:01;;;;;;;17.45;5.97;;;20.60;99.90;;;;;;4741334;30;20058;-76
2022/10/18 01:45:27;;;;;;;20.35;6.28;;;20.60;99.90;;;;;;4752353;29;20052;-76
2022/10/18 01:47:54;;;;;;;18.67;5.43;;;20.50;99.90;;;;;;4739753;30;20119;-76
2022/10/18 01:50:31;;;;;;;24.58;6.50;;;20.50;99.90;;;;;;4738936;30;20044;-75
2022/10/18 01:52:58;;;;;;;17.83;5.85;;;20.60;99.90;;;;;;4743847;30;20127;-75
2022/10/18 01:55:43;;;;;;;25.33;6.32;;;20.50;99.90;;;;;;4741390;30;20059;-76
2022/10/18 01:58:09;;;;;;;20.92;5.60;;;20.50;99.90;;;;;;4739168;30;20048;-76
2022/10/18 02:00:41;;;;;;;14.43;5.10;;;20.50;99.90;;;;;;4741370;29;20040;-76
2022/10/18 02:03:24;;;;;;;24.98;5.75;;;20.50;99.90;;;;;;4751254;30;20097;-76
2022/10/18 02:06:03;;;;;;;21.13;5.63;;;20.50;99.90;;;;;;4741149;29;20108;-76
2022/10/18 02:08:41;;;;;;;19.63;5.97;;;20.50;99.90;;;;;;4740111;30;20599;-76
2022/10/18 02:11:16;;;;;;;24.33;6.45;;;20.40;99.90;;;;;;4741339;30;20051;-76
2022/10/18 02:14:09;;;;;;;14.75;5.38;;;20.40;99.90;;;;;;4738795;30;20440;-76
2022/10/18 02:16:41;;;;;;;19.48;5.43;;;20.40;99.90;;;;;;4755957;30;20060;-76
2022/10/18 02:19:29;;;;;;;20.92;5.95;;;20.40;99.90;;;;;;4740737;30;20044;-76
2022/10/18 02:21:56;;;;;;;18.08;5.03;;;20.40;99.90;;;;;;4738817;30;20033;-76
2022/10/18 02:24:29;;;;;;;15.98;5.63;;;20.40;99.90;;;;;;4741410;30;20071;-76
2022/10/18 02:26:55;;;;;;;20.02;5.80;;;20.40;99.90;;;;;;4742554;30;20043;-76
2022/10/18 02:29:21;;;;;;;16.13;5.30;;;20.40;99.90;;;;;;4737949;30;20119;-76
2022/10/18 02:31:50;;;;;;;18.48;5.70;;;20.40;99.90;;;;;;4747628;30;20036;-76
2022/10/18 02:34:39;;;;;;;15.98;5.75;;;20.40;99.90;;;;;;4742592;30;20052;-76
2022/10/18 02:37:07;;;;;;;20.83;6.50;;;20.40;99.90;;;;;;4744990;30;20037;-76
2022/10/18 02:39:41;;;;;;;18.00;6.30;;;20.30;99.90;;;;;;4744045;30;20037;-76
2022/10/18 02:42:09;;;;;;;21.23;6.15;;;20.30;99.90;;;;;;4741597;30;20044;-75
2022/10/18 02:44:37;;;;;;;22.50;6.75;;;20.20;99.90;;;;;;4742915;30;20835;-76
2022/10/18 02:47:05;;;;;;;27.27;6.70;;;20.20;99.90;;;;;;4730031;30;20145;-76
2022/10/18 02:49:31;;;;;;;14.95;6.03;;;20.20;99.90;;;;;;4744198;30;20036;-76
2022/10/18 02:51:57;;;;;;;21.40;6.55;;;20.10;99.90;;;;;;4743578;29;20041;-76
2022/10/18 02:54:23;;;;;;;18.95;5.93;;;20.20;99.90;;;;;;4740617;30;20045;-76
2022/10/18 02:56:49;;;;;;;19.20;5.65;;;20.20;99.90;;;;;;4747936;30;20052;-75
2022/10/18 02:59:15;;;;;;;17.33;5.32;;;20.20;99.90;;;;;;4743484;30;20048;-76
2022/10/18 03:01:42;;;;;;;14.38;5.45;;;20.20;99.90;;;;;;4755895;30;20087;-76
2022/10/18 03:04:08;;;;;;;22.27;6.50;;;20.20;99.90;;;;;;4739212;30;20064;-75
2022/10/18 03:06:35;;;;;;;16.33;5.45;;;20.20;99.90;;;;;;4739050;30;20569;-76
2022/10/18 03:09:04;;;;;;;29.65;6.80;;;20.20;99.90;;;;;;4745282;30;20169;-76
2022/10/18 03:11:30;;;;;;;22.38;6.35;;;20.20;99.90;;;;;;4744544;30;20529;-75
2022/10/18 03:13:56;;;;;;;25.35;6.75;;;20.10;99.90;;;;;;4757340;30;20113;-76
2022/10/18 03:16:21;;;;;;;30.02;7.00;;;20.10;99.90;;;;;;4738588;30;20056;-77
2022/10/18 03:18:47;;;;;;;18.13;6.82;;;20.10;99.90;;;;;;4746444;30;20036;-76
2022/10/18 03:21:13;;;;;;;20.02;6.05;;;20.10;99.90;;;;;;4743238;30;20050;-76
2022/10/18 03:23:41;;;;;;;19.58;6.30;;;20.10;99.90;;;;;;4737771;30;20059;-76
2022/10/18 03:26:07;;;;;;;23.17;7.15;;;20.00;99.90;;;;;;4740357;30;20124;-76
2022/10/18 03:28:33;;;;;;;21.58;6.40;;;20.10;99.90;;;;;;4745970;30;20501;-76
2022/10/18 03:31:01;;;;;;;16.95;6.03;;;20.00;99.90;;;;;;4745014;30;20036;-75
2022/10/18 03:33:27;;;;;;;17.48;6.90;;;20.00;99.90;;;;;;4729244;30;20048;-75
2022/10/18 03:35:53;;;;;;;16.92;6.40;;;20.00;99.90;;;;;;4745523;30;20052;-76
2022/10/18 03:38:18;;;;;;;21.30;6.40;;;19.90;99.90;;;;;;4743351;30;20041;-76
2022/10/18 03:40:44;;;;;;;22.77;6.25;;;19.90;99.90;;;;;;4742510;29;20052;-75
2022/10/18 03:43:10;;;;;;;20.92;5.97;;;19.90;99.90;;;;;;4743337;30;20052;-75
2022/10/18 03:45:36;;;;;;;22.17;7.10;;;19.90;99.90;;;;;;4742014;30;20044;-76
2022/10/18 03:48:02;;;;;;;18.35;6.10;;;19.90;99.90;;;;;;4742211;30;20397;-76
2022/10/18 03:50:28;;;;;;;22.48;6.35;;;19.90;99.90;;;;;;4724984;30;20051;-75
2022/10/18 03:52:54;;;;;;;19.35;5.47;;;19.90;99.90;;;;;;4747263;30;20044;-75
2022/10/18 03:55:20;;;;;;;22.95;6.07;;;19.90;99.90;;;;;;4741817;30;20135;-75
2022/10/18 03:57:46;;;;;;;17.02;5.05;;;19.90;99.90;;;;;;4740991;30;20178;-76
2022/10/18 04:00:13;;;;;;;18.90;5.40;;;19.90;99.90;;;;;;4740150;30;20062;-76
2022/10/18 04:02:39;;;;;;;12.02;5.13;;;19.80;99.90;;;;;;4742621;30;20040;-75
2022/10/18 04:05:06;;;;;;;16.20;5.35;;;19.80;99.90;;;;;;4738226;30;20066;-76
2022/10/18 04:07:32;;;;;;;21.83;5.40;;;19.80;99.90;;;;;;4743261;30;20048;-76
2022/10/18 04:09:58;;;;;;;18.52;5.55;;;19.80;99.90;;;;;;4741874;30;20044;-76
2022/10/18 04:12:24;;;;;;;16.67;5.40;;;19.70;99.90;;;;;;4741140;30;20113;-75
2022/10/18 04:14:50;;;;;;;22.48;5.00;;;19.70;99.90;;;;;;4740232;30;20056;-75
2022/10/18 04:17:16;;;;;;;16.23;5.93;;;19.70;99.90;;;;;;4725574;30;20040;-74
2022/10/18 04:19:42;;;;;;;16.08;5.43;;;19.70;99.90;;;;;;4739736;30;20040;-75
2022/10/18 04:22:08;;;;;;;18.25;5.45;;;19.70;99.90;;;;;;4742139;30;20059;-74
2022/10/18 04:24:34;;;;;;;20.58;5.63;;;19.70;99.90;;;;;;4715941;30;20037;-74
2022/10/18 04:27:00;;;;;;;21.08;5.38;;;19.70;99.90;;;;;;4736226;30;20051;-75
2022/10/18 04:29:25;;;;;;;19.42;6.13;;;19.70;99.90;;;;;;4738395;30;20576;-74
2022/10/18 04:31:51;;;;;;;15.90;5.93;;;19.70;99.90;;;;;;4742261;30;20193;-74
2022/10/18 04:34:17;;;;;;;18.65;5.72;;;19.70;99.90;;;;;;4739065;30;20486;-74
2022/10/18 04:36:43;;;;;;;15.85;5.03;;;19.70;99.90;;;;;;4747625;30;20040;-75
2022/10/18 04:39:08;;;;;;;24.25;6.45;;;19.60;99.90;;;;;;4741071;30;20093;-74
2022/10/18 04:41:35;;;;;;;21.80;6.30;;;19.60;99.90;;;;;;4735719;30;20120;-74
2022/10/18 04:44:00;;;;;;;17.50;5.85;;;19.70;99.90;;;;;;4739644;30;20086;-75
2022/10/18 04:46:26;;;;;;;18.73;5.78;;;19.70;99.90;;;;;;4740414;30;20051;-75
2022/10/18 04:48:52;;;;;;;18.17;6.35;;;19.70;99.90;;;;;;4753235;30;20101;-74
2022/10/18 04:51:19;;;;;;;19.55;5.95;;;19.70;99.90;;;;;;4724075;30;20044;-76
2022/10/18 04:53:45;;;;;;;18.10;7.28;;;19.70;99.90;;;;;;4738175;30;20047;-75
2022/10/18 04:56:10;;;;;;;17.67;6.50;;;19.80;99.90;;;;;;4738946;30;20060;-75
2022/10/18 04:58:36;;;;;;;20.23;6.35;;;19.80;99.90;;;;;;4743063;30;20462;-74
2022/10/18 05:01:06;;;;;;;23.95;6.63;;;19.90;99.90;;;;;;4729163;30;20394;-74
2022/10/18 05:03:32;;;;;;;17.85;6.22;;;19.90;99.90;;;;;;4744045;30;20047;-73
2022/10/18 05:05:58;;;;;;;24.15;8.27;;;19.80;99.90;;;;;;4740176;30;20036;-74
2022/10/18 05:08:24;;;;;;;23.33;6.32;;;19.90;99.90;;;;;;4737500;30;20515;-74
2022/10/18 05:10:50;;;;;;;19.30;7.15;;;19.90;99.90;;;;;;4744069;29;20058;-74
2022/10/18 05:13:16;;;;;;;23.00;7.07;;;19.90;99.90;;;;;;4748902;30;20083;-74
2022/10/18 05:15:42;;;;;;;19.65;6.93;;;19.90;99.90;;;;;;4740455;29;20050;-74
2022/10/18 05:18:07;;;;;;;25.50;7.20;;;20.00;99.90;;;;;;4738461;30;20112;-75
2022/10/18 05:20:33;;;;;;;27.30;7.68;;;19.90;99.90;;;;;;4742431;29;20041;-75
2022/10/18 05:22:59;;;;;;;20.20;7.20;;;20.00;99.90;;;;;;4743410;30;20040;-75
2022/10/18 05:25:24;;;;;;;20.77;7.20;;;20.00;99.90;;;;;;4740959;30;20055;-75
2022/10/18 05:27:50;;;;;;;19.77;7.20;;;20.00;99.90;;;;;;4744230;30;20588;-75
2022/10/18 05:30:16;;;;;;;21.45;8.00;;;20.00;99.90;;;;;;4736722;29;20113;-75
2022/10/18 05:32:42;;;;;;;21.23;7.70;;;20.00;99.90;;;;;;4745187;30;20044;-74
2022/10/18 05:35:08;;;;;;;25.83;8.32;;;20.00;99.90;;;;;;4750389;29;20127;-74
2022/10/18 05:37:33;;;;;;;21.27;7.47;;;20.00;99.90;;;;;;4739808;30;20071;-74
2022/10/18 05:39:59;;;;;;;29.08;8.88;;;19.90;99.90;;;;;;4740124;30;20036;-74
2022/10/18 05:42:25;;;;;;;26.00;10.82;;;20.00;99.90;;;;;;4733866;30;20041;-74
2022/10/18 05:44:51;;;;;;;20.13;8.30;;;20.00;99.90;;;;;;4738676;30;20083;-76
2022/10/18 05:47:17;;;;;;;25.05;9.32;;;20.00;99.90;;;;;;4741475;29;20060;-75
2022/10/18 05:49:42;;;;;;;25.02;9.20;;;20.00;99.90;;;;;;4742174;30;20048;-75
2022/10/18 05:52:08;;;;;;;22.63;8.07;;;20.00;99.90;;;;;;4743038;29;20032;-74
2022/10/18 05:54:34;;;;;;;29.30;11.63;;;20.00;99.90;;;;;;4740292;30;20048;-74
2022/10/18 05:57:00;;;;;;;19.02;8.27;;;20.00;99.90;;;;;;4738632;29;20082;-74
2022/10/18 05:59:26;;;;;;;23.35;7.88;;;20.10;99.90;;;;;;4737684;30;20033;-74
2022/10/18 06:01:52;;;;;;;24.70;7.20;;;20.10;99.90;;;;;;4741077;30;20043;-73
2022/10/18 06:04:17;;;;;;;24.38;6.75;;;20.10;99.90;;;;;;4736816;30;20067;-75
2022/10/18 06:06:43;;;;;;;18.75;7.32;;;20.10;99.90;;;;;;4741005;30;20041;-76
2022/10/18 06:09:13;;;;;;;21.25;7.22;;;20.10;99.90;;;;;;4739116;30;20498;-75
2022/10/18 06:11:39;;;;;;;20.02;7.65;;;20.10;99.90;;;;;;4746008;30;20047;-75
2022/10/18 06:14:07;;;;;;;23.60;6.88;;;20.10;99.90;;;;;;4740001;30;20033;-74
2022/10/18 06:16:33;;;;;;;22.75;7.93;;;20.10;99.90;;;;;;4741240;29;20476;-74
2022/10/18 06:18:59;;;;;;;18.40;6.80;;;20.20;99.90;;;;;;4725930;30;20150;-75
2022/10/18 06:21:25;;;;;;;16.83;6.38;;;20.20;99.90;;;;;;4732475;30;20044;-76
2022/10/18 06:23:53;;;;;;;18.08;6.07;;;20.30;99.90;;;;;;4725875;30;20087;-74
2022/10/18 06:26:19;;;;;;;20.77;6.70;;;20.30;99.90;;;;;;4742977;30;20060;-74
2022/10/18 06:28:45;;;;;;;18.80;6.25;;;20.30;99.90;;;;;;4745339;30;20101;-75
2022/10/18 06:31:12;;;;;;;21.02;7.72;;;20.30;99.90;;;;;;4742825;30;20048;-75
2022/10/18 06:33:38;;;;;;;15.45;6.78;;;20.30;99.90;;;;;;4740710;30;20081;-74
2022/10/18 06:36:11;;;;;;;19.08;6.40;;;20.30;99.90;;;;;;4738839;30;20036;-74
2022/10/18 06:38:37;;;;;;;19.55;6.57;;;20.30;99.90;;;;;;4744736;30;20458;-74
2022/10/18 06:41:04;;;;;;;15.43;6.15;;;20.30;99.90;;;;;;4747045;30;20096;-74
2022/10/18 06:43:29;;;;;;;16.60;6.00;;;20.30;99.90;;;;;;4741630;30;20564;-74
2022/10/18 06:45:55;;;;;;;16.73;6.43;;;20.30;99.90;;;;;;4742267;30;20074;-74
2022/10/18 06:48:22;;;;;;;20.15;6.85;;;20.30;99.90;;;;;;4740151;30;20052;-74
2022/10/18 06:50:52;;;;;;;24.52;6.82;;;20.30;99.90;;;;;;4742927;30;20032;-75
2022/10/18 06:53:18;;;;;;;22.65;7.13;;;20.40;99.90;;;;;;4744156;30;20053;-75
2022/10/18 06:55:45;;;;;;;24.48;11.60;;;20.50;99.90;;;;;;4747637;30;20050;-75
2022/10/18 06:58:11;;;;;;;18.30;7.32;;;20.60;99.90;;;;;;4737619;30;20052;-75
2022/10/18 07:00:38;;;;;;;17.95;6.82;;;20.60;99.90;;;;;;4740088;30;20032;-75
2022/10/18 07:03:04;;;;;;;25.00;6.22;;;20.70;99.90;;;;;;4742091;30;20126;-75
2022/10/18 07:05:31;;;;;;;16.88;5.88;;;20.70;99.90;;;;;;4743446;30;20052;-74
2022/10/18 07:07:57;;;;;;;20.27;7.32;;;20.70;99.90;;;;;;4742871;30;20555;-74
2022/10/18 07:10:23;;;;;;;23.70;5.85;;;20.70;99.90;;;;;;4745188;29;20156;-75
2022/10/18 07:12:49;;;;;;;23.42;6.80;;;20.80;99.90;;;;;;4736904;30;20067;-74
2022/10/18 07:15:16;;;;;;;18.25;6.20;;;20.70;99.90;;;;;;4740215;30;20044;-74
2022/10/18 07:17:44;;;;;;;19.20;5.85;;;20.80;99.90;;;;;;4745966;30;20036;-75
2022/10/18 07:20:11;;;;;;;23.35;6.30;;;20.80;99.90;;;;;;4731761;30;20048;-76
2022/10/18 07:22:37;;;;;;;19.30;5.75;;;20.90;99.90;;;;;;4745614;30;20052;-75
2022/10/18 07:25:07;;;;;;;14.98;5.10;;;21.00;99.90;;;;;;4742680;29;20050;-73
2022/10/18 07:27:41;;;;;;;17.38;5.45;;;21.10;99.90;;;;;;4741628;30;20055;-75
2022/10/18 07:30:09;;;;;;;15.18;5.35;;;21.20;99.90;;;;;;4740125;30;20037;-75
2022/10/18 07:32:35;;;;;;;16.48;5.15;;;21.20;99.90;;;;;;4742338;30;20135;-74
2022/10/18 07:35:02;;;;;;;16.67;6.07;;;21.30;99.90;;;;;;4738708;30;20083;-75
2022/10/18 07:37:29;;;;;;;18.00;6.10;;;21.40;99.90;;;;;;4740408;30;20055;-74
2022/10/18 07:39:55;;;;;;;14.68;5.93;;;21.50;99.90;;;;;;4724248;30;20036;-74
2022/10/18 07:42:21;;;;;;;14.73;4.90;;;21.60;99.90;;;;;;4735021;30;20129;-75
2022/10/18 07:44:46;;;;;;;18.67;5.25;;;21.70;99.90;;;;;;4735070;30;20696;-74
2022/10/18 07:47:12;;;;;;;18.48;5.05;;;21.70;99.90;;;;;;4735616;29;20044;-74
2022/10/18 07:49:38;;;;;;;14.52;4.85;;;21.80;99.90;;;;;;4738816;30;20044;-75
2022/10/18 07:52:04;;;;;;;17.25;6.07;;;21.90;99.90;;;;;;4741709;30;20044;-73
2022/10/18 07:54:30;;;;;;;15.80;5.35;;;22.00;99.90;;;;;;4736064;30;20053;-75
2022/10/18 07:56:56;;;;;;;16.27;5.38;;;22.10;99.90;;;;;;4741451;29;20047;-74
2022/10/18 07:59:21;;;;;;;21.95;5.55;;;22.20;99.90;;;;;;4737057;30;20476;-75
2022/10/18 08:01:47;;;;;;;16.70;5.13;;;22.20;99.90;;;;;;4737012;30;20086;-74
2022/10/18 08:04:13;;;;;;;21.10;5.35;;;22.30;99.90;;;;;;4727524;30;20164;-74
2022/10/18 08:06:38;;;;;;;20.85;5.35;;;22.40;99.90;;;;;;4738528;30;20051;-75
2022/10/18 08:09:04;;;;;;;18.27;4.80;;;22.50;99.90;;;;;;4738786;30;20082;-75
2022/10/18 08:11:30;;;;;;;19.65;5.47;;;22.50;99.90;;;;;;4735256;29;20043;-74
2022/10/18 08:13:56;;;;;;;17.73;5.15;;;22.60;99.90;;;;;;4741746;30;20040;-74
2022/10/18 08:16:25;;;;;;;17.35;5.40;;;22.60;99.90;;;;;;4731471;29;20048;-74
2022/10/18 08:18:52;;;;;;;19.95;5.68;;;22.70;99.90;;;;;;4718671;30;20068;-74
2022/10/18 08:21:19;;;;;;;16.85;5.20;;;22.80;99.90;;;;;;4738472;29;20390;-74
2022/10/18 08:23:46;;;;;;;16.67;4.15;;;23.60;99.90;;;;;;4745102;30;20051;-74
2022/10/18 08:26:18;;;;;;;19.73;4.75;;;23.90;99.90;;;;;;4736297;29;20056;-74
2022/10/18 08:28:44;;;;;;;18.98;5.07;;;23.90;99.90;;;;;;4740415;30;20040;-74
2022/10/18 08:31:16;;;;;;;20.25;5.40;;;24.20;99.90;;;;;;4732039;29;20482;-74
2022/10/18 08:33:42;;;;;;;16.10;4.28;;;24.30;99.90;;;;;;4734932;30;20132;-74
2022/10/18 08:36:11;;;;;;;20.20;4.90;;;24.30;99.90;;;;;;4739773;29;20148;-74
2022/10/18 08:38:39;;;;;;;18.90;5.22;;;24.30;99.90;;;;;;4736746;30;20045;-75
2022/10/18 08:41:29;;;;;;;17.13;4.75;;;24.30;99.90;;;;;;4737147;29;20044;-75
2022/10/18 08:44:23;;;;;;;17.70;4.90;;;24.30;99.90;;;;;;4737101;30;20433;-75
2022/10/18 08:46:54;;;;;;;15.90;4.97;;;24.50;99.90;;;;;;4736983;29;20044;-75
2022/10/18 08:49:28;;;;;;;18.20;4.78;;;24.50;99.90;;;;;;4739164;30;20052;-74
2022/10/18 08:51:55;;;;;;;16.02;4.65;;;24.60;99.90;;;;;;4739343;30;20127;-75
2022/10/18 08:54:36;;;;;;;20.70;5.32;;;24.70;99.90;;;;;;4736739;30;20048;-75
2022/10/18 08:57:09;;;;;;;15.27;5.05;;;24.80;99.90;;;;;;4736620;30;20044;-74
2022/10/18 08:59:40;;;;;;;16.13;4.63;;;24.90;99.90;;;;;;4738796;30;20044;-75
2022/10/18 09:02:36;;;;;;;18.83;4.47;;;24.90;99.90;;;;;;4736090;30;20127;-75
2022/10/18 09:05:10;;;;;;;18.23;4.32;;;25.00;99.90;;;;;;4740173;30;20178;-75
2022/10/18 09:08:08;;;;;;;16.73;5.07;;;25.10;99.90;;;;;;4737775;30;20131;-74
2022/10/18 09:11:04;;;;;;;18.50;5.43;;;25.30;99.90;;;;;;4733697;30;20470;-75
2022/10/18 09:13:42;;;;;;;;;;;25.40;99.90;;;;;;4738932;30;20044;-74
2022/10/18 09:16:18;;;;;;;18.08;5.35;;;25.40;99.90;;;;;;4733562;30;20372;-74
2022/10/18 09:19:11;;;;;;;19.30;5.20;;;25.70;99.90;;;;;;4737161;30;20044;-76
2022/10/18 09:21:48;;;;;;;18.85;5.30;;;25.70;99.90;;;;;;4738141;30;20122;-75
2022/10/18 09:24:24;;;;;;;19.08;4.88;;;25.70;99.90;;;;;;4735039;30;20113;-74
2022/10/18 09:26:56;;;;;;;20.38;5.40;;;25.70;99.90;;;;;;4739186;30;20589;-75
2022/10/18 09:29:51;;;;;;;21.02;5.88;;;25.80;99.90;;;;;;4724015;30;20043;-75
2022/10/18 09:32:29;;;;;;;19.45;5.75;;;25.80;99.90;;;;;;4737674;30;20036;-75
2022/10/18 09:35:09;;;;;;;24.52;5.95;;;26.00;99.90;;;;;;4734850;30;20528;-75
2022/10/18 09:37:36;;;;;;;18.02;5.32;;;26.10;99.90;;;;;;4735723;30;20048;-74
2022/10/18 09:40:14;;;;;;;20.88;6.00;;;26.40;99.90;;;;;;4734323;30;20033;-75
2022/10/18 09:42:50;;;;;;;18.83;5.65;;;26.70;99.90;;;;;;4717155;30;20563;-75
2022/10/18 09:45:24;;;;;;;17.80;6.03;;;26.70;99.90;;;;;;4733933;30;20048;-74
2022/10/18 09:48:16;;;;;;;21.83;6.20;;;26.70;99.90;;;;;;4740745;30;20048;-75
2022/10/18 09:51:01;;;;;;;21.45;5.65;;;27.10;99.90;;;;;;4738414;30;20052;-75
2022/10/18 09:53:39;;;;;;;18.48;6.85;;;27.30;99.90;;;;;;4736582;30;20389;-74
2022/10/18 09:56:15;;;;;;;19.55;5.97;;;27.60;99.90;;;;;;4737823;29;20071;-74
2022/10/18 09:58:47;;;;;;;20.67;5.70;;;27.70;99.90;;;;;;4746696;30;20052;-75
2022/10/18 10:01:23;;;;;;;24.70;6.50;;;27.90;99.90;;;;;;4730967;29;20044;-75
2022/10/18 10:03:49;;;;;;;16.42;6.40;;;27.80;99.90;;;;;;4726352;30;20643;-74
2022/10/18 10:06:30;;;;;;;19.77;6.68;;;27.40;99.90;;;;;;4736000;30;20040;-75
2022/10/18 10:09:05;;;;;;;21.05;6.05;;;27.60;99.90;;;;;;4736592;30;20123;-76
2022/10/18 10:11:51;;;;;;;20.98;5.57;;;28.10;99.90;;;;;;4748841;29;20467;-75
2022/10/18 10:14:22;;;;;;;25.10;6.05;;;27.70;99.90;;;;;;4723135;30;20050;-75
2022/10/18 10:16:57;;;;;;;23.23;7.10;;;28.10;99.90;;;;;;4746189;30;20043;-75
2022/10/18 10:19:26;;;;;;;21.63;5.05;;;28.60;99.90;;;;;;4732138;30;20042;-75
2022/10/18 10:21:57;;;;;;;20.55;5.15;;;29.40;99.90;;;;;;4728672;29;21892;-75
2022/10/18 10:24:33;;;;;;;16.65;4.97;;;28.80;99.90;;;;;;4727439;30;20516;-75
2022/10/18 10:27:02;;;;;;;20.40;5.90;;;28.50;99.90;;;;;;4749691;29;20036;-75
2022/10/18 10:29:56;;;;;;;18.75;5.72;;;28.00;99.90;;;;;;4737230;30;20100;-75
2022/10/18 10:32:24;;;;;;;23.45;6.70;;;28.60;99.90;;;;;;4731279;30;20383;-76
2022/10/18 10:34:50;;;;;;;27.38;5.70;;;29.40;99.90;;;;;;4751304;30;20052;-74
2022/10/18 10:37:31;;;;;;;26.92;6.25;;;29.90;99.90;;;;;;4738701;30;20162;-75
2022/10/18 10:40:17;;;;;;;22.45;6.03;;;30.50;99.90;;;;;;4735691;30;20048;-76
2022/10/18 10:43:00;;;;;;;16.02;5.63;;;30.20;99.90;;;;;;4743918;30;20048;-75
2022/10/18 10:45:29;;;;;;;21.75;5.82;;;30.20;99.90;;;;;;4739797;30;20047;-75
2022/10/18 10:48:21;;;;;;;20.92;6.15;;;30.70;99.90;;;;;;4742076;30;20041;-75
2022/10/18 10:50:55;;;;;;;19.20;6.10;;;31.00;99.90;;;;;;4751753;29;20048;-74
2022/10/18 10:53:28;;;;;;;18.40;5.50;;;31.40;99.90;;;;;;4737106;30;20048;-76
2022/10/18 10:55:56;;;;;;;21.95;6.38;;;31.40;99.90;;;;;;4741293;30;20044;-76
2022/10/18 10:58:22;;;;;;;24.30;6.13;;;31.90;99.90;;;;;;4737986;30;20076;-75
2022/10/18 11:00:48;;;;;;;22.02;6.78;;;31.20;99.90;;;;;;4737848;30;20048;-74
2022/10/18 11:03:15;;;;;;;;;;;30.50;99.90;;;;;;4736174;30;20497;-75
2022/10/18 11:05:43;;;;;;;23.88;6.38;;;29.80;99.90;;;;;;4744907;29;19918;-75
2022/10/18 11:08:12;;;;;;;22.02;5.85;;;30.20;99.90;;;;;;4731482;30;20517;-76
2022/10/18 11:11:12;;;;;;;25.90;6.75;;;30.40;99.90;;;;;;4739386;30;20056;-74
2022/10/18 11:13:52;;;;;;;22.65;6.90;;;29.90;99.90;;;;;;4725312;30;20127;-74
2022/10/18 11:17:02;;;;;;;21.38;6.18;;;29.30;99.90;;;;;;4747668;29;20086;-74
2022/10/18 11:19:31;;;;;;;19.90;5.13;;;28.60;99.90;;;;;;4722673;30;20508;-75
2022/10/18 11:21:59;;;;;;;36.58;16.40;;;28.30;99.90;;;;;;4721334;30;20393;-73
2022/10/18 11:24:25;;;;;;;32.50;6.82;;;28.10;99.90;;;;;;4719967;30;20068;-74
2022/10/18 11:27:31;;;;;;;26.17;6.63;;;28.00;99.90;;;;;;4730707;30;20126;-74
2022/10/18 11:30:24;;;;;;;22.60;7.20;;;28.10;99.90;;;;;;4731851;29;20040;-74
2022/10/18 11:32:53;;;;;;;25.38;6.80;;;27.90;99.90;;;;;;4741991;30;20048;-74
2022/10/18 11:35:53;;;;;;;22.67;6.43;;;27.80;99.90;;;;;;4735381;30;20281;-75
2022/10/18 11:38:24;;;;;;;23.90;5.95;;;27.70;99.90;;;;;;4733904;30;20967;-74
2022/10/18 11:40:59;;;;;;;23.10;6.32;;;27.40;99.90;;;;;;4737706;30;20043;-74
2022/10/18 11:43:50;;;;;;;25.30;6.00;;;27.90;99.90;;;;;;4731712;30;20133;-75
2022/10/18 11:46:31;;;;;;;21.42;6.40;;;27.80;99.90;;;;;;4723599;30;20048;-74
2022/10/18 11:49:11;;;;;;;22.52;7.13;;;27.70;99.90;;;;;;4741596;30;20193;-76
2022/10/18 11:52:09;;;;;;;19.67;6.13;;;27.90;99.90;;;;;;4736164;29;20047;-75
2022/10/18 11:54:56;;;;;;;21.83;6.15;;;27.40;99.90;;;;;;4732378;30;20730;-74
2022/10/18 11:57:34;;;;;;;22.27;6.53;;;27.10;99.90;;;;;;4733816;30;20044;-75
2022/10/18 12:00:23;;;;;;;24.25;6.63;;;27.40;99.90;;;;;;4741715;30;20056;-76
2022/10/18 12:02:55;;;;;;;16.20;5.75;;;28.70;99.90;;;;;;4737711;30;20118;-73
2022/10/18 12:05:21;;;;;;;17.90;5.40;;;30.20;99.90;;;;;;4737631;30;20079;-74
2022/10/18 12:08:02;;;;;;;22.83;6.35;;;30.30;99.90;;;;;;4742142;29;20637;-75
2022/10/18 12:10:30;;;;;;;24.15;6.55;;;29.50;99.90;;;;;;4737664;29;20059;-74
2022/10/18 12:13:01;;;;;;;23.35;6.78;;;29.40;99.90;;;;;;4738788;30;20057;-75
2022/10/18 12:15:32;;;;;;;23.23;7.00;;;28.60;99.90;;;;;;4740032;30;20052;-75
2022/10/18 12:18:04;;;;;;;23.30;5.80;;;28.40;99.90;;;;;;4739878;30;20052;-74
2022/10/18 12:20:39;;;;;;;22.98;6.95;;;28.40;99.90;;;;;;4739375;30;20043;-75
2022/10/18 12:23:18;;;;;;;23.13;6.32;;;28.70;99.90;;;;;;4753337;30;20044;-75
2022/10/18 12:25:59;;;;;;;25.67;6.35;;;28.60;99.90;;;;;;4737106;30;20127;-76
2022/10/18 12:28:43;;;;;;;25.55;6.55;;;28.20;99.90;;;;;;4755060;30;20037;-75
2022/10/18 12:31:18;;;;;;;23.52;6.47;;;28.20;99.90;;;;;;4736432;30;20522;-74
2022/10/18 12:33:47;;;;;;;24.55;7.25;;;28.00;99.90;;;;;;4739194;30;20444;-76
2022/10/18 12:36:19;;;;;;;22.30;6.28;;;28.10;99.90;;;;;;4739523;30;20052;-74
2022/10/18 12:38:54;;;;;;;22.88;6.05;;;28.00;99.90;;;;;;4734923;30;20040;-74
2022/10/18 12:41:29;;;;;;;30.30;7.03;;;27.90;99.90;;;;;;4726644;30;20039;-74
2022/10/18 12:44:16;;;;;;;22.98;6.63;;;28.00;99.90;;;;;;4736722;30;20109;-75
2022/10/18 12:46:52;;;;;;;27.77;8.27;;;28.00;99.90;;;;;;4752138;30;20148;-75
2022/10/18 12:49:38;;;;;;;23.08;6.18;;;29.40;99.90;;;;;;4736755;30;20582;-75
2022/10/18 12:52:20;;;;;;;25.73;8.02;;;28.30;99.90;;;;;;4737035;30;20040;-74
2022/10/18 12:55:06;;;;;;;25.63;6.88;;;29.40;99.90;;;;;;4739688;30;20041;-74
2022/10/18 12:57:50;;;;;;;22.83;6.05;;;29.90;99.90;;;;;;4738206;30;20493;-74
2022/10/18 13:00:28;;;;;;;;;;;29.50;99.90;;;;;;4735927;30;20458;-74